sensor_id;sensor_type;location;lat;lon;timestamp;temperature;humidity
19972;DHT22;10147;16.402;102.848;2024-03-25T00:00:38;26.40;99.90
19972;DHT22;10147;16.402;102.848;2024-03-25T00:03:07;26.40;99.90
19972;DHT22;10147;16.402;102.848;2024-03-25T00:05:36;26.40;99.90
19972;DHT22;10147;16.402;102.848;2024-03-25T00:08:05;26.30;99.90
19972;DHT22;10147;16.402;102.848;2024-03-25T00:10:34;26.30;99.90
19972;DHT22;10147;16.402;102.848;2024-03-25T00:13:06;26.30;99.90
19972;DHT22;10147;16.402;102.848;2024-03-25T00:15:35;26.30;99.90
19972;DHT22;10147;16.402;102.848;2024-03-25T00:18:06;26.40;99.90
19972;DHT22;10147;16.402;102.848;2024-03-25T00:20:35;26.40;99.90
19972;DHT22;10147;16.402;102.848;2024-03-25T00:23:04;26.40;99.90
19972;DHT22;10147;16.402;102.848;2024-03-25T00:25:37;26.60;99.90
19972;DHT22;10147;16.402;102.848;2024-03-25T00:28:06;26.60;99.90
19972;DHT22;10147;16.402;102.848;2024-03-25T00:30:35;26.60;99.90
19972;DHT22;10147;16.402;102.848;2024-03-25T00:33:04;26.80;99.90
19972;DHT22;10147;16.402;102.848;2024-03-25T00:35:35;26.90;99.90
19972;DHT22;10147;16.402;102.848;2024-03-25T00:38:04;27.00;99.90
19972;DHT22;10147;16.402;102.848;2024-03-25T00:40:37;27.10;99.90
19972;DHT22;10147;16.402;102.848;2024-03-25T00:43:06;27.30;99.90
19972;DHT22;10147;16.402;102.848;2024-03-25T00:45:35;27.30;99.90
19972;DHT22;10147;16.402;102.848;2024-03-25T00:48:05;27.40;99.90
19972;DHT22;10147;16.402;102.848;2024-03-25T00:50:35;27.50;99.90
19972;DHT22;10147;16.402;102.848;2024-03-25T00:53:04;27.70;99.90
19972;DHT22;10147;16.402;102.848;2024-03-25T00:55:36;27.80;99.90
19972;DHT22;10147;16.402;102.848;2024-03-25T00:58:05;27.90;99.90
19972;DHT22;10147;16.402;102.848;2024-03-25T01:00:34;28.10;99.90
19972;DHT22;10147;16.402;102.848;2024-03-25T01:03:04;28.20;99.90
19972;DHT22;10147;16.402;102.848;2024-03-25T01:05:33;28.30;99.90
19972;DHT22;10147;16.402;102.848;2024-03-25T01:08:02;28.30;99.90
19972;DHT22;10147;16.402;102.848;2024-03-25T01:10:32;28.40;99.90
19972;DHT22;10147;16.402;102.848;2024-03-25T01:13:01;28.40;99.90
19972;DHT22;10147;16.402;102.848;2024-03-25T01:15:31;28.50;99.90
19972;DHT22;10147;16.402;102.848;2024-03-25T01:18:00;28.70;99.90
19972;DHT22;10147;16.402;102.848;2024-03-25T01:20:30;28.70;99.90
19972;DHT22;10147;16.402;102.848;2024-03-25T01:22:59;28.80;99.90
19972;DHT22;10147;16.402;102.848;2024-03-25T01:25:31;29.00;99.90
19972;DHT22;10147;16.402;102.848;2024-03-25T01:28:00;29.10;99.90
19972;DHT22;10147;16.402;102.848;2024-03-25T01:30:30;29.20;99.90
19972;DHT22;10147;16.402;102.848;2024-03-25T01:32:59;29.30;99.90
19972;DHT22;10147;16.402;102.848;2024-03-25T01:35:29;29.40;99.90
19972;DHT22;10147;16.402;102.848;2024-03-25T01:37:58;29.50;99.90
19972;DHT22;10147;16.402;102.848;2024-03-25T01:40:27;29.60;99.90
19972;DHT22;10147;16.402;102.848;2024-03-25T01:42:59;29.70;99.90
19972;DHT22;10147;16.402;102.848;2024-03-25T01:45:31;29.90;99.90
19972;DHT22;10147;16.402;102.848;2024-03-25T01:48:08;30.10;99.90
19972;DHT22;10147;16.402;102.848;2024-03-25T01:50:45;30.00;99.90
19972;DHT22;10147;16.402;102.848;2024-03-25T01:53:14;30.20;99.90
19972;DHT22;10147;16.402;102.848;2024-03-25T01:55:43;30.40;99.90
19972;DHT22;10147;16.402;102.848;2024-03-25T01:58:13;30.40;99.90
19972;DHT22;10147;16.402;102.848;2024-03-25T02:00:43;30.50;99.90
19972;DHT22;10147;16.402;102.848;2024-03-25T02:03:13;30.60;99.90
19972;DHT22;10147;16.402;102.848;2024-03-25T02:05:43;30.80;99.90
19972;DHT22;10147;16.402;102.848;2024-03-25T02:08:20;30.80;99.90
19972;DHT22;10147;16.402;102.848;2024-03-25T02:10:50;30.90;99.90
19972;DHT22;10147;16.402;102.848;2024-03-25T02:13:19;30.90;99.90
19972;DHT22;10147;16.402;102.848;2024-03-25T02:15:50;31.00;99.90
19972;DHT22;10147;16.402;102.848;2024-03-25T02:18:19;31.10;99.90
19972;DHT22;10147;16.402;102.848;2024-03-25T02:20:49;31.20;99.90
19972;DHT22;10147;16.402;102.848;2024-03-25T02:23:19;31.30;99.90
19972;DHT22;10147;16.402;102.848;2024-03-25T02:25:50;31.50;99.90
19972;DHT22;10147;16.402;102.848;2024-03-25T02:28:20;31.40;99.90
19972;DHT22;10147;16.402;102.848;2024-03-25T02:30:48;31.70;99.90
19972;DHT22;10147;16.402;102.848;2024-03-25T02:33:17;31.80;99.90
19972;DHT22;10147;16.402;102.848;2024-03-25T02:35:46;32.00;99.90
19972;DHT22;10147;16.402;102.848;2024-03-25T02:38:15;31.90;99.90
19972;DHT22;10147;16.402;102.848;2024-03-25T02:40:47;31.90;99.90
19972;DHT22;10147;16.402;102.848;2024-03-25T02:43:16;31.90;99.90
19972;DHT22;10147;16.402;102.848;2024-03-25T02:45:48;32.10;99.90
19972;DHT22;10147;16.402;102.848;2024-03-25T02:48:17;32.30;99.90
19972;DHT22;10147;16.402;102.848;2024-03-25T02:50:45;32.40;99.90
19972;DHT22;10147;16.402;102.848;2024-03-25T02:53:13;32.40;99.90
19972;DHT22;10147;16.402;102.848;2024-03-25T02:55:41;32.60;99.90
19972;DHT22;10147;16.402;102.848;2024-03-25T02:58:09;32.70;99.90
19972;DHT22;10147;16.402;102.848;2024-03-25T03:00:37;32.80;99.90
19972;DHT22;10147;16.402;102.848;2024-03-25T03:03:05;32.80;99.90
19972;DHT22;10147;16.402;102.848;2024-03-25T03:05:34;33.00;99.90
19972;DHT22;10147;16.402;102.848;2024-03-25T03:08:02;33.10;99.90
19972;DHT22;10147;16.402;102.848;2024-03-25T03:10:30;33.20;99.90
19972;DHT22;10147;16.402;102.848;2024-03-25T03:12:58;33.40;99.90
19972;DHT22;10147;16.402;102.848;2024-03-25T03:15:26;33.40;99.90
19972;DHT22;10147;16.402;102.848;2024-03-25T03:17:55;33.30;99.90
19972;DHT22;10147;16.402;102.848;2024-03-25T03:20:23;33.40;99.90
19972;DHT22;10147;16.402;102.848;2024-03-25T03:22:54;33.60;99.90
19972;DHT22;10147;16.402;102.848;2024-03-25T03:25:22;33.80;99.90
19972;DHT22;10147;16.402;102.848;2024-03-25T03:27:50;33.90;99.90
19972;DHT22;10147;16.402;102.848;2024-03-25T03:30:18;34.00;99.90
19972;DHT22;10147;16.402;102.848;2024-03-25T03:32:46;34.10;99.90
19972;DHT22;10147;16.402;102.848;2024-03-25T03:35:14;34.20;99.90
19972;DHT22;10147;16.402;102.848;2024-03-25T03:37:42;34.30;99.90
19972;DHT22;10147;16.402;102.848;2024-03-25T03:40:10;34.40;99.90
19972;DHT22;10147;16.402;102.848;2024-03-25T03:42:38;34.40;99.90
19972;DHT22;10147;16.402;102.848;2024-03-25T03:45:07;34.40;99.90
19972;DHT22;10147;16.402;102.848;2024-03-25T03:47:35;34.50;99.90
19972;DHT22;10147;16.402;102.848;2024-03-25T03:50:06;34.50;99.90
19972;DHT22;10147;16.402;102.848;2024-03-25T03:52:35;34.80;99.90
19972;DHT22;10147;16.402;102.848;2024-03-25T03:55:03;35.00;99.90
19972;DHT22;10147;16.402;102.848;2024-03-25T03:57:32;35.10;99.90
19972;DHT22;10147;16.402;102.848;2024-03-25T04:00:00;35.20;99.90
19972;DHT22;10147;16.402;102.848;2024-03-25T04:02:28;35.10;99.90
19972;DHT22;10147;16.402;102.848;2024-03-25T04:04:56;35.00;99.90
19972;DHT22;10147;16.402;102.848;2024-03-25T04:07:24;35.30;99.90
19972;DHT22;10147;16.402;102.848;2024-03-25T04:09:54;35.40;99.90
19972;DHT22;10147;16.402;102.848;2024-03-25T04:12:22;35.50;99.90
19972;DHT22;10147;16.402;102.848;2024-03-25T04:14:50;35.50;99.90
19972;DHT22;10147;16.402;102.848;2024-03-25T04:17:22;35.60;99.90
19972;DHT22;10147;16.402;102.848;2024-03-25T04:19:51;35.40;99.90
19972;DHT22;10147;16.402;102.848;2024-03-25T04:22:19;35.60;99.90
19972;DHT22;10147;16.402;102.848;2024-03-25T04:24:47;35.80;99.90
19972;DHT22;10147;16.402;102.848;2024-03-25T04:27:16;36.00;99.90
19972;DHT22;10147;16.402;102.848;2024-03-25T04:29:43;35.90;99.90
19972;DHT22;10147;16.402;102.848;2024-03-25T04:32:12;35.90;96.10
19972;DHT22;10147;16.402;102.848;2024-03-25T04:34:39;35.90;94.70
19972;DHT22;10147;16.402;102.848;2024-03-25T04:37:10;36.20;92.50
19972;DHT22;10147;16.402;102.848;2024-03-25T04:39:39;36.20;92.70
19972;DHT22;10147;16.402;102.848;2024-03-25T04:42:07;36.50;97.70
19972;DHT22;10147;16.402;102.848;2024-03-25T04:44:35;36.30;92.20
19972;DHT22;10147;16.402;102.848;2024-03-25T04:47:03;36.30;95.70
19972;DHT22;10147;16.402;102.848;2024-03-25T04:49:31;36.50;97.90
19972;DHT22;10147;16.402;102.848;2024-03-25T04:51:59;36.60;99.90
19972;DHT22;10147;16.402;102.848;2024-03-25T04:54:27;36.70;99.90
19972;DHT22;10147;16.402;102.848;2024-03-25T04:56:55;36.70;99.90
19972;DHT22;10147;16.402;102.848;2024-03-25T04:59:23;36.90;99.90
19972;DHT22;10147;16.402;102.848;2024-03-25T05:01:51;36.80;99.90
19972;DHT22;10147;16.402;102.848;2024-03-25T05:04:19;36.80;99.90
19972;DHT22;10147;16.402;102.848;2024-03-25T05:06:47;36.90;99.90
19972;DHT22;10147;16.402;102.848;2024-03-25T05:09:16;36.70;99.90
19972;DHT22;10147;16.402;102.848;2024-03-25T05:11:44;36.60;99.30
19972;DHT22;10147;16.402;102.848;2024-03-25T05:14:13;36.90;97.40
19972;DHT22;10147;16.402;102.848;2024-03-25T05:16:42;36.80;95.00
19972;DHT22;10147;16.402;102.848;2024-03-25T05:19:10;36.90;95.50
19972;DHT22;10147;16.402;102.848;2024-03-25T05:21:39;37.00;94.50
19972;DHT22;10147;16.402;102.848;2024-03-25T05:24:08;37.20;95.00
19972;DHT22;10147;16.402;102.848;2024-03-25T05:26:37;37.40;95.10
19972;DHT22;10147;16.402;102.848;2024-03-25T05:29:05;37.60;91.90
19972;DHT22;10147;16.402;102.848;2024-03-25T05:31:36;37.60;91.90
19972;DHT22;10147;16.402;102.848;2024-03-25T05:34:06;37.80;93.00
19972;DHT22;10147;16.402;102.848;2024-03-25T05:36:37;37.90;91.60
19972;DHT22;10147;16.402;102.848;2024-03-25T05:39:05;37.80;91.60
19972;DHT22;10147;16.402;102.848;2024-03-25T05:41:34;38.00;91.50
19972;DHT22;10147;16.402;102.848;2024-03-25T05:44:03;38.00;89.80
19972;DHT22;10147;16.402;102.848;2024-03-25T05:46:33;38.10;90.00
19972;DHT22;10147;16.402;102.848;2024-03-25T05:49:04;38.20;90.10
19972;DHT22;10147;16.402;102.848;2024-03-25T05:51:32;38.10;89.50
19972;DHT22;10147;16.402;102.848;2024-03-25T05:54:01;38.30;90.20
19972;DHT22;10147;16.402;102.848;2024-03-25T05:56:29;38.40;90.60
19972;DHT22;10147;16.402;102.848;2024-03-25T05:59:01;38.20;88.70
19972;DHT22;10147;16.402;102.848;2024-03-25T06:01:29;38.30;87.90
19972;DHT22;10147;16.402;102.848;2024-03-25T06:03:59;38.30;86.90
19972;DHT22;10147;16.402;102.848;2024-03-25T06:06:27;38.50;84.20
19972;DHT22;10147;16.402;102.848;2024-03-25T06:08:55;38.50;85.30
19972;DHT22;10147;16.402;102.848;2024-03-25T06:11:23;38.50;80.90
19972;DHT22;10147;16.402;102.848;2024-03-25T06:13:51;38.20;80.60
19972;DHT22;10147;16.402;102.848;2024-03-25T06:16:19;38.40;74.60
19972;DHT22;10147;16.402;102.848;2024-03-25T06:18:48;38.50;73.70
19972;DHT22;10147;16.402;102.848;2024-03-25T06:21:16;38.60;71.50
19972;DHT22;10147;16.402;102.848;2024-03-25T06:23:44;38.70;69.80
19972;DHT22;10147;16.402;102.848;2024-03-25T06:26:12;38.80;62.80
19972;DHT22;10147;16.402;102.848;2024-03-25T06:28:40;38.90;62.00
19972;DHT22;10147;16.402;102.848;2024-03-25T06:31:10;39.00;62.60
19972;DHT22;10147;16.402;102.848;2024-03-25T06:33:58;39.10;63.40
19972;DHT22;10147;16.402;102.848;2024-03-25T06:36:45;39.40;61.60
19972;DHT22;10147;16.402;102.848;2024-03-25T06:39:15;39.50;61.00
19972;DHT22;10147;16.402;102.848;2024-03-25T06:41:43;39.10;55.70
19972;DHT22;10147;16.402;102.848;2024-03-25T06:44:11;39.30;56.00
19972;DHT22;10147;16.402;102.848;2024-03-25T06:46:39;39.40;54.00
19972;DHT22;10147;16.402;102.848;2024-03-25T06:49:07;39.70;53.10
19972;DHT22;10147;16.402;102.848;2024-03-25T06:51:36;39.80;52.50
19972;DHT22;10147;16.402;102.848;2024-03-25T06:54:04;40.00;52.60
19972;DHT22;10147;16.402;102.848;2024-03-25T06:56:32;39.90;49.60
19972;DHT22;10147;16.402;102.848;2024-03-25T06:59:00;40.10;51.20
19972;DHT22;10147;16.402;102.848;2024-03-25T07:01:29;40.20;53.20
19972;DHT22;10147;16.402;102.848;2024-03-25T07:03:57;40.10;51.50
19972;DHT22;10147;16.402;102.848;2024-03-25T07:06:25;40.10;51.90
19972;DHT22;10147;16.402;102.848;2024-03-25T07:08:53;40.10;49.90
19972;DHT22;10147;16.402;102.848;2024-03-25T07:11:21;39.80;49.20
19972;DHT22;10147;16.402;102.848;2024-03-25T07:13:50;39.90;49.60
19972;DHT22;10147;16.402;102.848;2024-03-25T07:16:18;39.90;47.90
19972;DHT22;10147;16.402;102.848;2024-03-25T07:18:46;40.00;48.90
19972;DHT22;10147;16.402;102.848;2024-03-25T07:21:14;39.90;48.20
19972;DHT22;10147;16.402;102.848;2024-03-25T07:23:42;40.00;49.90
19972;DHT22;10147;16.402;102.848;2024-03-25T07:26:11;40.10;51.70
19972;DHT22;10147;16.402;102.848;2024-03-25T07:28:39;40.00;49.80
19972;DHT22;10147;16.402;102.848;2024-03-25T07:31:07;40.40;49.20
19972;DHT22;10147;16.402;102.848;2024-03-25T07:33:35;40.20;48.40
19972;DHT22;10147;16.402;102.848;2024-03-25T07:36:03;40.10;50.40
19972;DHT22;10147;16.402;102.848;2024-03-25T07:38:31;40.10;50.10
19972;DHT22;10147;16.402;102.848;2024-03-25T07:41:04;40.20;49.90
19972;DHT22;10147;16.402;102.848;2024-03-25T07:43:32;40.20;48.20
19972;DHT22;10147;16.402;102.848;2024-03-25T07:46:00;40.30;49.10
19972;DHT22;10147;16.402;102.848;2024-03-25T07:48:28;40.30;48.80
19972;DHT22;10147;16.402;102.848;2024-03-25T07:50:56;40.30;46.80
19972;DHT22;10147;16.402;102.848;2024-03-25T07:53:24;40.30;46.00
19972;DHT22;10147;16.402;102.848;2024-03-25T07:55:52;40.00;46.40
19972;DHT22;10147;16.402;102.848;2024-03-25T07:58:20;39.90;48.00
19972;DHT22;10147;16.402;102.848;2024-03-25T08:00:48;39.90;46.20
19972;DHT22;10147;16.402;102.848;2024-03-25T08:03:16;39.90;47.10
19972;DHT22;10147;16.402;102.848;2024-03-25T08:05:43;39.80;46.60
19972;DHT22;10147;16.402;102.848;2024-03-25T08:08:13;39.80;46.30
19972;DHT22;10147;16.402;102.848;2024-03-25T08:10:42;39.90;48.10
19972;DHT22;10147;16.402;102.848;2024-03-25T08:13:11;39.90;46.10
19972;DHT22;10147;16.402;102.848;2024-03-25T08:15:42;39.90;46.20
19972;DHT22;10147;16.402;102.848;2024-03-25T08:18:11;39.80;47.90
19972;DHT22;10147;16.402;102.848;2024-03-25T08:20:40;39.70;46.50
19972;DHT22;10147;16.402;102.848;2024-03-25T08:23:08;39.80;45.90
19972;DHT22;10147;16.402;102.848;2024-03-25T08:25:37;39.70;45.90
19972;DHT22;10147;16.402;102.848;2024-03-25T08:28:05;39.40;45.60
19972;DHT22;10147;16.402;102.848;2024-03-25T08:30:33;39.30;47.20
19972;DHT22;10147;16.402;102.848;2024-03-25T08:33:03;39.30;46.20
19972;DHT22;10147;16.402;102.848;2024-03-25T08:35:31;39.50;46.10
19972;DHT22;10147;16.402;102.848;2024-03-25T08:37:59;39.70;45.60
19972;DHT22;10147;16.402;102.848;2024-03-25T08:40:27;39.60;47.60
19972;DHT22;10147;16.402;102.848;2024-03-25T08:42:56;39.70;45.60
19972;DHT22;10147;16.402;102.848;2024-03-25T08:45:23;39.60;47.40
19972;DHT22;10147;16.402;102.848;2024-03-25T08:47:51;39.50;45.30
19972;DHT22;10147;16.402;102.848;2024-03-25T08:50:20;39.50;43.80
19972;DHT22;10147;16.402;102.848;2024-03-25T08:52:49;39.40;45.00
19972;DHT22;10147;16.402;102.848;2024-03-25T08:55:16;39.50;46.60
19972;DHT22;10147;16.402;102.848;2024-03-25T08:57:44;39.60;45.40
19972;DHT22;10147;16.402;102.848;2024-03-25T09:00:14;39.60;45.20
19972;DHT22;10147;16.402;102.848;2024-03-25T09:02:44;39.80;45.90
19972;DHT22;10147;16.402;102.848;2024-03-25T09:05:12;39.80;44.50
19972;DHT22;10147;16.402;102.848;2024-03-25T09:07:42;40.00;46.10
19972;DHT22;10147;16.402;102.848;2024-03-25T09:10:10;39.70;43.90
19972;DHT22;10147;16.402;102.848;2024-03-25T09:12:58;39.60;42.90
19972;DHT22;10147;16.402;102.848;2024-03-25T09:15:27;39.50;44.00
19972;DHT22;10147;16.402;102.848;2024-03-25T09:18:00;39.40;44.80
19972;DHT22;10147;16.402;102.848;2024-03-25T09:20:28;39.50;45.60
19972;DHT22;10147;16.402;102.848;2024-03-25T09:22:56;39.20;45.10
19972;DHT22;10147;16.402;102.848;2024-03-25T09:25:27;39.10;45.40
19972;DHT22;10147;16.402;102.848;2024-03-25T09:27:55;39.10;45.50
19972;DHT22;10147;16.402;102.848;2024-03-25T09:30:25;38.90;45.30
19972;DHT22;10147;16.402;102.848;2024-03-25T09:32:53;39.00;46.70
19972;DHT22;10147;16.402;102.848;2024-03-25T09:35:25;39.20;44.90
19972;DHT22;10147;16.402;102.848;2024-03-25T09:37:55;39.10;45.70
19972;DHT22;10147;16.402;102.848;2024-03-25T09:40:25;39.00;45.10
19972;DHT22;10147;16.402;102.848;2024-03-25T09:42:56;39.10;45.60
19972;DHT22;10147;16.402;102.848;2024-03-25T09:45:26;39.00;45.40
19972;DHT22;10147;16.402;102.848;2024-03-25T09:47:56;39.00;46.00
19972;DHT22;10147;16.402;102.848;2024-03-25T09:50:27;38.90;45.70
19972;DHT22;10147;16.402;102.848;2024-03-25T09:52:55;38.70;46.60
19972;DHT22;10147;16.402;102.848;2024-03-25T09:55:24;38.60;47.30
19972;DHT22;10147;16.402;102.848;2024-03-25T09:57:54;38.70;47.50
19972;DHT22;10147;16.402;102.848;2024-03-25T10:00:24;38.60;47.20
19972;DHT22;10147;16.402;102.848;2024-03-25T10:02:54;38.60;46.30
19972;DHT22;10147;16.402;102.848;2024-03-25T10:05:24;38.60;50.00
19972;DHT22;10147;16.402;102.848;2024-03-25T10:07:52;38.40;52.60
19972;DHT22;10147;16.402;102.848;2024-03-25T10:10:24;38.20;50.40
19972;DHT22;10147;16.402;102.848;2024-03-25T10:12:55;38.00;53.90
19972;DHT22;10147;16.402;102.848;2024-03-25T10:15:26;37.80;52.20
19972;DHT22;10147;16.402;102.848;2024-03-25T10:17:58;37.80;52.00
19972;DHT22;10147;16.402;102.848;2024-03-25T10:20:26;37.60;56.20
19972;DHT22;10147;16.402;102.848;2024-03-25T10:22:56;37.40;53.50
19972;DHT22;10147;16.402;102.848;2024-03-25T10:25:31;37.40;53.40
19972;DHT22;10147;16.402;102.848;2024-03-25T10:28:01;37.40;52.00
19972;DHT22;10147;16.402;102.848;2024-03-25T10:30:32;37.30;58.80
19972;DHT22;10147;16.402;102.848;2024-03-25T10:33:03;37.30;51.40
19972;DHT22;10147;16.402;102.848;2024-03-25T10:35:35;37.40;53.10
19972;DHT22;10147;16.402;102.848;2024-03-25T10:38:11;37.20;55.00
19972;DHT22;10147;16.402;102.848;2024-03-25T10:40:46;37.20;54.40
19972;DHT22;10147;16.402;102.848;2024-03-25T10:43:18;37.10;54.80
19972;DHT22;10147;16.402;102.848;2024-03-25T10:45:49;37.10;56.00
19972;DHT22;10147;16.402;102.848;2024-03-25T10:48:28;37.10;55.30
19972;DHT22;10147;16.402;102.848;2024-03-25T10:51:01;37.10;54.20
19972;DHT22;10147;16.402;102.848;2024-03-25T10:53:35;37.00;53.70
19972;DHT22;10147;16.402;102.848;2024-03-25T10:56:06;36.90;53.40
19972;DHT22;10147;16.402;102.848;2024-03-25T10:58:35;36.90;53.50
19972;DHT22;10147;16.402;102.848;2024-03-25T11:01:06;36.80;55.00
19972;DHT22;10147;16.402;102.848;2024-03-25T11:03:36;36.80;55.50
19972;DHT22;10147;16.402;102.848;2024-03-25T11:06:05;36.80;56.70
19972;DHT22;10147;16.402;102.848;2024-03-25T11:08:34;36.80;58.10
19972;DHT22;10147;16.402;102.848;2024-03-25T11:11:05;36.60;58.80
19972;DHT22;10147;16.402;102.848;2024-03-25T11:13:33;36.30;56.90
19972;DHT22;10147;16.402;102.848;2024-03-25T11:16:02;36.20;56.10
19972;DHT22;10147;16.402;102.848;2024-03-25T11:18:30;36.30;60.30
19972;DHT22;10147;16.402;102.848;2024-03-25T11:21:07;36.20;62.90
19972;DHT22;10147;16.402;102.848;2024-03-25T11:23:44;36.10;62.90
19972;DHT22;10147;16.402;102.848;2024-03-25T11:26:34;36.10;62.70
19972;DHT22;10147;16.402;102.848;2024-03-25T11:29:06;36.00;63.90
19972;DHT22;10147;16.402;102.848;2024-03-25T11:31:39;35.90;64.60
19972;DHT22;10147;16.402;102.848;2024-03-25T11:34:12;35.70;64.90
19972;DHT22;10147;16.402;102.848;2024-03-25T11:36:40;35.70;65.90
19972;DHT22;10147;16.402;102.848;2024-03-25T11:39:09;35.70;64.60
19972;DHT22;10147;16.402;102.848;2024-03-25T11:41:41;35.60;64.60
19972;DHT22;10147;16.402;102.848;2024-03-25T11:44:10;35.60;65.90
19972;DHT22;10147;16.402;102.848;2024-03-25T11:46:39;35.50;65.50
19972;DHT22;10147;16.402;102.848;2024-03-25T11:49:16;35.50;67.30
19972;DHT22;10147;16.402;102.848;2024-03-25T11:51:47;35.40;66.00
19972;DHT22;10147;16.402;102.848;2024-03-25T11:54:18;35.20;68.70
19972;DHT22;10147;16.402;102.848;2024-03-25T11:56:48;35.20;71.40
19972;DHT22;10147;16.402;102.848;2024-03-25T11:59:16;35.20;72.30
19972;DHT22;10147;16.402;102.848;2024-03-25T12:01:46;35.00;73.60
19972;DHT22;10147;16.402;102.848;2024-03-25T12:04:18;34.80;74.10
19972;DHT22;10147;16.402;102.848;2024-03-25T12:06:47;34.70;75.90
19972;DHT22;10147;16.402;102.848;2024-03-25T12:09:17;34.70;75.70
19972;DHT22;10147;16.402;102.848;2024-03-25T12:12:07;34.50;76.10
19972;DHT22;10147;16.402;102.848;2024-03-25T12:14:37;34.50;75.30
19972;DHT22;10147;16.402;102.848;2024-03-25T12:17:06;34.50;72.80
19972;DHT22;10147;16.402;102.848;2024-03-25T12:19:35;34.40;75.40
19972;DHT22;10147;16.402;102.848;2024-03-25T12:22:04;34.30;78.20
19972;DHT22;10147;16.402;102.848;2024-03-25T12:24:34;34.40;75.40
19972;DHT22;10147;16.402;102.848;2024-03-25T12:27:05;34.10;78.00
19972;DHT22;10147;16.402;102.848;2024-03-25T12:29:35;34.10;77.90
19972;DHT22;10147;16.402;102.848;2024-03-25T12:32:05;34.30;78.20
19972;DHT22;10147;16.402;102.848;2024-03-25T12:34:39;34.00;78.90
19972;DHT22;10147;16.402;102.848;2024-03-25T12:37:15;33.80;80.20
19972;DHT22;10147;16.402;102.848;2024-03-25T12:39:49;33.60;84.30
19972;DHT22;10147;16.402;102.848;2024-03-25T12:42:20;33.30;85.70
19972;DHT22;10147;16.402;102.848;2024-03-25T12:44:51;32.90;86.90
19972;DHT22;10147;16.402;102.848;2024-03-25T12:47:19;32.70;87.10
19972;DHT22;10147;16.402;102.848;2024-03-25T12:49:48;33.30;87.40
19972;DHT22;10147;16.402;102.848;2024-03-25T12:52:16;33.30;88.80
19972;DHT22;10147;16.402;102.848;2024-03-25T12:54:47;32.80;90.20
19972;DHT22;10147;16.402;102.848;2024-03-25T12:57:16;32.50;90.90
19972;DHT22;10147;16.402;102.848;2024-03-25T12:59:45;32.70;91.10
19972;DHT22;10147;16.402;102.848;2024-03-25T13:02:14;32.70;91.10
19972;DHT22;10147;16.402;102.848;2024-03-25T13:04:44;32.70;91.90
19972;DHT22;10147;16.402;102.848;2024-03-25T13:07:14;32.50;92.90
19972;DHT22;10147;16.402;102.848;2024-03-25T13:09:44;32.70;92.50
19972;DHT22;10147;16.402;102.848;2024-03-25T13:12:14;32.90;93.70
19972;DHT22;10147;16.402;102.848;2024-03-25T13:14:46;32.80;95.20
19972;DHT22;10147;16.402;102.848;2024-03-25T13:17:14;32.30;96.90
19972;DHT22;10147;16.402;102.848;2024-03-25T13:19:43;32.50;97.40
19972;DHT22;10147;16.402;102.848;2024-03-25T13:22:14;32.10;98.90
19972;DHT22;10147;16.402;102.848;2024-03-25T13:24:43;31.80;99.90
19972;DHT22;10147;16.402;102.848;2024-03-25T13:27:13;31.80;99.90
19972;DHT22;10147;16.402;102.848;2024-03-25T13:29:42;32.40;99.50
19972;DHT22;10147;16.402;102.848;2024-03-25T13:32:13;32.70;98.90
19972;DHT22;10147;16.402;102.848;2024-03-25T13:34:41;32.30;99.90
19972;DHT22;10147;16.402;102.848;2024-03-25T13:37:13;32.00;99.90
19972;DHT22;10147;16.402;102.848;2024-03-25T13:39:41;32.20;99.90
19972;DHT22;10147;16.402;102.848;2024-03-25T13:42:11;32.40;99.90
19972;DHT22;10147;16.402;102.848;2024-03-25T13:44:42;32.60;99.90
19972;DHT22;10147;16.402;102.848;2024-03-25T13:47:10;32.70;99.90
19972;DHT22;10147;16.402;102.848;2024-03-25T13:49:40;32.40;99.90
19972;DHT22;10147;16.402;102.848;2024-03-25T13:52:11;32.20;99.90
19972;DHT22;10147;16.402;102.848;2024-03-25T13:54:39;32.20;99.90
19972;DHT22;10147;16.402;102.848;2024-03-25T13:57:09;32.30;99.90
19972;DHT22;10147;16.402;102.848;2024-03-25T13:59:39;32.00;99.90
19972;DHT22;10147;16.402;102.848;2024-03-25T14:02:13;31.90;99.90
19972;DHT22;10147;16.402;102.848;2024-03-25T14:04:45;32.10;99.90
19972;DHT22;10147;16.402;102.848;2024-03-25T14:07:19;32.20;99.90
19972;DHT22;10147;16.402;102.848;2024-03-25T14:09:49;32.30;99.90
19972;DHT22;10147;16.402;102.848;2024-03-25T14:12:18;32.20;99.90
19972;DHT22;10147;16.402;102.848;2024-03-25T14:14:49;32.10;99.90
19972;DHT22;10147;16.402;102.848;2024-03-25T14:17:18;32.10;99.90
19972;DHT22;10147;16.402;102.848;2024-03-25T14:19:52;32.00;99.90
19972;DHT22;10147;16.402;102.848;2024-03-25T14:22:24;32.00;99.90
19972;DHT22;10147;16.402;102.848;2024-03-25T14:24:56;32.00;99.90
19972;DHT22;10147;16.402;102.848;2024-03-25T14:27:27;32.00;99.90
19972;DHT22;10147;16.402;102.848;2024-03-25T14:29:57;31.90;99.90
19972;DHT22;10147;16.402;102.848;2024-03-25T14:32:28;31.90;99.90
19972;DHT22;10147;16.402;102.848;2024-03-25T14:35:04;31.90;99.90
19972;DHT22;10147;16.402;102.848;2024-03-25T14:37:35;31.90;99.90
19972;DHT22;10147;16.402;102.848;2024-03-25T14:40:09;31.70;99.90
19972;DHT22;10147;16.402;102.848;2024-03-25T14:42:38;31.70;99.90
19972;DHT22;10147;16.402;102.848;2024-03-25T14:45:07;31.70;99.90
19972;DHT22;10147;16.402;102.848;2024-03-25T14:47:39;31.60;99.90
19972;DHT22;10147;16.402;102.848;2024-03-25T14:50:09;31.70;99.90
19972;DHT22;10147;16.402;102.848;2024-03-25T14:52:39;31.70;99.90
19972;DHT22;10147;16.402;102.848;2024-03-25T14:55:11;31.70;99.90
19972;DHT22;10147;16.402;102.848;2024-03-25T14:57:40;31.60;99.90
19972;DHT22;10147;16.402;102.848;2024-03-25T15:00:10;31.50;99.90
19972;DHT22;10147;16.402;102.848;2024-03-25T15:02:41;31.50;99.90
19972;DHT22;10147;16.402;102.848;2024-03-25T15:05:13;31.50;99.90
19972;DHT22;10147;16.402;102.848;2024-03-25T15:07:44;31.40;99.90
19972;DHT22;10147;16.402;102.848;2024-03-25T15:10:16;31.30;99.90
19972;DHT22;10147;16.402;102.848;2024-03-25T15:12:47;31.30;99.90
19972;DHT22;10147;16.402;102.848;2024-03-25T15:15:18;31.30;99.90
19972;DHT22;10147;16.402;102.848;2024-03-25T15:17:48;31.30;99.90